createdAt,value
2019-02-09T00:00:38.494Z,7.57
2019-02-09T00:03:08.563Z,6.90
2019-02-09T00:05:39.661Z,5.93
2019-02-09T00:08:13.982Z,7.43
2019-02-09T00:10:43.385Z,14.90
2019-02-09T00:13:12.496Z,11.53
2019-02-09T00:15:41.648Z,8.83
2019-02-09T00:18:11.899Z,6.17
2019-02-09T00:20:45.343Z,7.50
2019-02-09T00:23:21.847Z,7.17
2019-02-09T00:25:51.194Z,6.33
2019-02-09T00:28:22.829Z,8.60
2019-02-09T00:30:51.929Z,8.30
2019-02-09T00:33:22.454Z,9.63
2019-02-09T00:35:53.404Z,9.60
2019-02-09T00:38:25.908Z,11.77
2019-02-09T00:41:04.123Z,8.27
2019-02-09T00:43:33.503Z,9.30
2019-02-09T00:46:08.947Z,7.60
2019-02-09T00:48:41.343Z,7.80
2019-02-09T00:51:10.468Z,10.43
2019-02-09T00:53:41.020Z,7.00
2019-02-09T00:56:10.473Z,9.00
2019-02-09T00:58:39.653Z,11.57
2019-02-09T01:01:11.743Z,12.87
2019-02-09T01:03:42.355Z,7.80
2019-02-09T01:06:16.717Z,9.40
2019-02-09T01:08:45.826Z,13.33
2019-02-09T01:11:18.350Z,9.20
2019-02-09T01:13:49.955Z,9.03
2019-02-09T01:16:22.550Z,6.83
2019-02-09T01:18:55.898Z,7.80
2019-02-09T01:21:28.177Z,7.50
2019-02-09T01:23:59.163Z,13.93
2019-02-09T01:26:28.278Z,5.73
2019-02-09T01:28:58.489Z,5.50
2019-02-09T01:31:27.605Z,12.27
2019-02-09T01:34:06.134Z,10.80
2019-02-09T01:36:39.394Z,8.53
2019-02-09T01:39:11.500Z,9.13
2019-02-09T01:41:40.653Z,6.40
2019-02-09T01:44:09.748Z,9.13
2019-02-09T01:46:43.564Z,6.30
2019-02-09T01:49:20.486Z,7.77
2019-02-09T01:51:55.908Z,8.00
2019-02-09T01:54:25.029Z,8.90
2019-02-09T01:56:54.311Z,6.10
2019-02-09T01:59:23.411Z,7.70
2019-02-09T02:02:00.099Z,7.67
2019-02-09T02:04:29.621Z,7.13
2019-02-09T02:07:03.680Z,10.33
2019-02-09T02:09:39.912Z,10.43
2019-02-09T02:12:13.500Z,8.50
2019-02-09T02:14:42.597Z,6.87
2019-02-09T02:17:11.691Z,7.23
2019-02-09T02:19:40.781Z,6.70
2019-02-09T02:22:11.162Z,12.73
2019-02-09T02:24:46.419Z,8.17
2019-02-09T02:27:23.705Z,7.33
2019-02-09T02:29:52.798Z,7.20
2019-02-09T02:32:21.983Z,5.63
2019-02-09T02:34:51.095Z,8.97
2019-02-09T02:37:21.958Z,6.53
2019-02-09T02:39:51.080Z,7.60
2019-02-09T02:42:21.662Z,7.47
2019-02-09T02:44:52.435Z,12.13
2019-02-09T02:47:28.617Z,8.23
2019-02-09T02:50:01.285Z,5.27
2019-02-09T02:52:30.377Z,5.60
2019-02-09T02:55:01.499Z,6.00
2019-02-09T02:57:32.063Z,3.23
2019-02-09T03:00:03.480Z,4.80
2019-02-09T03:02:32.602Z,4.93
2019-02-09T03:05:01.721Z,7.33
2019-02-09T03:07:32.057Z,6.50
2019-02-09T03:10:01.148Z,5.17
2019-02-09T03:12:33.817Z,3.53
2019-02-09T03:15:02.925Z,3.97
2019-02-09T03:17:32.014Z,3.77
2019-02-09T03:20:03.146Z,3.20
2019-02-09T03:22:35.191Z,2.70
2019-02-09T03:25:06.061Z,4.07
2019-02-09T03:27:35.220Z,1.80
2019-02-09T03:30:05.659Z,1.60
2019-02-09T03:32:51.242Z,3.10
2019-02-09T03:35:20.798Z,2.00
2019-02-09T03:37:53.011Z,2.07
2019-02-09T03:40:23.630Z,3.13
2019-02-09T03:42:59.504Z,1.77
2019-02-09T03:45:35.411Z,4.30
2019-02-09T03:48:16.454Z,3.37
2019-02-09T03:50:50.834Z,1.70
2019-02-09T03:53:19.914Z,1.90
2019-02-09T03:55:50.186Z,1.37
2019-02-09T03:58:19.985Z,3.80
2019-02-09T04:00:55.278Z,1.70
2019-02-09T04:03:25.404Z,2.90
2019-02-09T04:05:55.867Z,2.03
2019-02-09T04:08:30.795Z,2.73
2019-02-09T04:10:59.963Z,2.37
2019-02-09T04:13:31.279Z,1.47
2019-02-09T04:16:01.373Z,1.93
2019-02-09T04:18:30.492Z,3.30
2019-02-09T04:20:59.586Z,1.60
2019-02-09T04:23:29.954Z,3.00
2019-02-09T04:25:59.224Z,1.67
2019-02-09T04:28:31.540Z,2.20
2019-02-09T04:31:06.071Z,3.20
2019-02-09T04:33:40.829Z,1.70
2019-02-09T04:36:09.951Z,1.60
2019-02-09T04:38:40.277Z,2.60
2019-02-09T04:41:10.481Z,1.60
2019-02-09T04:43:42.482Z,3.20
2019-02-09T04:46:17.090Z,2.00
2019-02-09T04:48:46.242Z,1.63
2019-02-09T04:51:15.331Z,2.17
2019-02-09T04:53:44.779Z,5.23
2019-02-09T04:56:15.417Z,1.67
2019-02-09T04:58:44.751Z,1.90
2019-02-09T05:01:14.948Z,4.20
2019-02-09T05:03:44.168Z,1.57
2019-02-09T05:06:15.618Z,1.57
2019-02-09T05:08:45.170Z,2.13
2019-02-09T05:11:16.746Z,2.30
2019-02-09T05:13:45.857Z,2.77
2019-02-09T05:16:17.607Z,2.60
2019-02-09T05:18:48.617Z,2.67
2019-02-09T05:21:19.842Z,4.80
2019-02-09T05:23:51.817Z,1.63
2019-02-09T05:26:26.815Z,1.90
2019-02-09T05:28:55.892Z,1.73
2019-02-09T05:31:26.149Z,3.20
2019-02-09T05:34:00.395Z,1.40
2019-02-09T05:36:29.784Z,1.83
2019-02-09T05:39:00.935Z,2.07
2019-02-09T05:41:34.689Z,1.50
2019-02-09T05:44:04.091Z,3.00
2019-02-09T05:46:34.979Z,1.60
2019-02-09T05:49:05.342Z,4.67
2019-02-09T05:51:34.447Z,2.17
2019-02-09T05:54:06.817Z,1.50
2019-02-09T05:56:35.922Z,2.13
2019-02-09T05:59:05.026Z,1.83
2019-02-09T06:01:35.324Z,1.37
2019-02-09T06:04:05.557Z,1.77
2019-02-09T06:06:42.797Z,2.43
2019-02-09T06:09:16.948Z,2.40
2019-02-09T06:11:52.309Z,2.23
2019-02-09T06:14:27.319Z,1.20
2019-02-09T06:16:58.349Z,2.17
2019-02-09T06:19:28.454Z,2.60
2019-02-09T06:21:57.609Z,1.43
2019-02-09T06:24:28.926Z,2.70
2019-02-09T06:27:01.100Z,1.97
2019-02-09T06:29:34.792Z,2.20
2019-02-09T06:32:05.194Z,2.83
2019-02-09T06:34:34.290Z,1.53
2019-02-09T06:37:03.426Z,3.13
2019-02-09T06:39:38.042Z,2.37
2019-02-09T06:42:09.430Z,3.20
2019-02-09T06:44:38.613Z,2.00
2019-02-09T06:47:10.586Z,2.93
2019-02-09T06:49:40.984Z,3.57
2019-02-09T06:52:15.299Z,2.77
2019-02-09T06:54:45.058Z,1.90
2019-02-09T06:57:15.295Z,1.90
2019-02-09T06:59:44.502Z,5.33
2019-02-09T07:02:13.622Z,5.07
2019-02-09T07:04:43.021Z,8.10
2019-02-09T07:07:12.586Z,3.10
2019-02-09T07:09:41.789Z,3.20
2019-02-09T07:12:12.375Z,2.40
2019-02-09T07:14:43.314Z,1.93
2019-02-09T07:17:15.221Z,2.53
2019-02-09T07:19:48.043Z,2.53
2019-02-09T07:22:18.971Z,1.53
2019-02-09T07:24:50.846Z,1.57
2019-02-09T07:27:26.246Z,3.73
2019-02-09T07:29:55.724Z,5.33
2019-02-09T07:32:27.305Z,2.43
2019-02-09T07:34:56.418Z,2.93
2019-02-09T07:37:27.167Z,1.80
2019-02-09T07:40:00.758Z,1.50
2019-02-09T07:42:32.138Z,1.40
2019-02-09T07:45:05.622Z,2.73
2019-02-09T07:47:34.710Z,2.07
2019-02-09T07:50:06.875Z,2.40
2019-02-09T07:52:37.271Z,1.70
2019-02-09T07:55:08.557Z,2.07
2019-02-09T07:57:40.873Z,4.27
2019-02-09T08:00:18.379Z,1.60
2019-02-09T08:02:53.745Z,2.93
2019-02-09T08:05:24.220Z,5.83
2019-02-09T08:07:53.643Z,2.07
2019-02-09T08:10:25.299Z,2.97
2019-02-09T08:12:55.562Z,2.43
2019-02-09T08:15:26.402Z,1.57
2019-02-09T08:17:55.907Z,2.30
2019-02-09T08:20:47.982Z,2.17
2019-02-09T08:23:21.587Z,1.83
2019-02-09T08:25:52.871Z,1.40
2019-02-09T08:28:26.695Z,3.17
2019-02-09T08:30:57.163Z,4.10
2019-02-09T08:33:27.798Z,5.27
2019-02-09T08:35:56.903Z,4.40
2019-02-09T08:38:27.905Z,3.23
2019-02-09T08:40:59.990Z,1.77
2019-02-09T08:43:32.669Z,5.03
2019-02-09T08:46:02.135Z,2.50
2019-02-09T08:48:33.702Z,2.23
2019-02-09T08:51:06.832Z,1.80
2019-02-09T08:53:36.042Z,4.60
2019-02-09T08:56:14.383Z,2.83
2019-02-09T08:58:43.502Z,2.53
2019-02-09T09:01:13.016Z,2.33
2019-02-09T09:03:44.634Z,3.07
2019-02-09T09:06:13.835Z,5.60
2019-02-09T09:08:44.011Z,1.57
2019-02-09T09:11:16.771Z,2.70
2019-02-09T09:13:45.892Z,1.80
2019-02-09T09:16:14.983Z,1.83
2019-02-09T09:18:44.455Z,2.33
2019-02-09T09:21:14.485Z,3.77
2019-02-09T09:23:48.145Z,8.10
2019-02-09T09:26:17.249Z,2.37
2019-02-09T09:28:46.422Z,2.17
2019-02-09T09:31:21.213Z,3.23
2019-02-09T09:33:50.664Z,4.63
2019-02-09T09:36:21.803Z,3.23
2019-02-09T09:38:50.962Z,2.77
2019-02-09T09:41:21.475Z,3.50
2019-02-09T09:43:50.660Z,2.60
2019-02-09T09:46:22.707Z,1.90
2019-02-09T09:48:51.822Z,2.33
2019-02-09T09:51:21.271Z,2.57
2019-02-09T09:53:52.075Z,2.17
2019-02-09T09:56:23.802Z,1.77
2019-02-09T09:58:55.852Z,2.03
2019-02-09T10:01:28.021Z,1.57
2019-02-09T10:03:58.521Z,3.10
2019-02-09T10:06:33.557Z,1.90
2019-02-09T10:09:16.892Z,1.30
2019-02-09T10:11:48.758Z,3.00
2019-02-09T10:14:20.624Z,2.13
2019-02-09T10:16:54.059Z,1.50
2019-02-09T10:19:26.508Z,2.63
2019-02-09T10:21:58.324Z,3.20
2019-02-09T10:24:31.954Z,1.93
2019-02-09T10:27:02.237Z,1.27
2019-02-09T10:29:31.629Z,2.63
2019-02-09T10:32:03.748Z,3.67
2019-02-09T10:34:32.945Z,3.03
2019-02-09T10:37:03.462Z,2.17
2019-02-09T10:39:34.940Z,4.80
2019-02-09T10:42:04.253Z,3.53
2019-02-09T10:44:33.343Z,5.53
2019-02-09T10:47:02.641Z,3.40
2019-02-09T10:49:31.992Z,2.37
2019-02-09T10:52:05.583Z,3.67
2019-02-09T10:54:42.178Z,3.43
2019-02-09T10:57:16.450Z,5.17
2019-02-09T10:59:45.549Z,2.87
2019-02-09T11:02:14.635Z,3.80
2019-02-09T11:04:43.742Z,4.50
2019-02-09T11:07:13.206Z,3.43
2019-02-09T11:09:45.344Z,3.53
2019-02-09T11:12:14.598Z,4.70
2019-02-09T11:14:44.388Z,2.27
2019-02-09T11:17:14.374Z,5.30
2019-02-09T11:19:46.740Z,3.60
2019-02-09T11:22:17.295Z,5.47
2019-02-09T11:24:46.396Z,1.87
2019-02-09T11:27:16.674Z,2.90
2019-02-09T11:29:47.453Z,3.57
2019-02-09T11:32:16.613Z,6.50
2019-02-09T11:34:45.756Z,4.30
2019-02-09T11:37:17.900Z,3.67
2019-02-09T11:39:49.585Z,3.67
2019-02-09T11:42:19.859Z,1.87
2019-02-09T11:44:50.370Z,2.37
2019-02-09T11:47:22.612Z,5.27
2019-02-09T11:49:51.753Z,4.13
2019-02-09T11:52:22.180Z,12.43
2019-02-09T11:54:53.944Z,2.50
2019-02-09T11:57:23.035Z,8.10
2019-02-09T11:59:52.497Z,3.07
2019-02-09T12:02:23.463Z,3.00
2019-02-09T12:04:54.107Z,4.37
2019-02-09T12:07:31.010Z,3.20
2019-02-09T12:10:01.316Z,2.83
2019-02-09T12:12:30.377Z,8.37
2019-02-09T12:14:59.495Z,3.50
2019-02-09T12:17:28.712Z,3.40
2019-02-09T12:19:59.448Z,2.80
2019-02-09T12:22:31.584Z,3.47
2019-02-09T12:25:01.688Z,2.60
2019-02-09T12:27:31.439Z,4.13
2019-02-09T12:30:05.073Z,2.70
2019-02-09T12:32:37.591Z,3.83
2019-02-09T12:35:07.404Z,3.23
2019-02-09T12:37:39.062Z,2.17
2019-02-09T12:40:14.425Z,4.07
2019-02-09T12:42:47.843Z,2.47
2019-02-09T12:45:20.907Z,4.97
2019-02-09T12:47:54.525Z,2.80
2019-02-09T12:50:25.812Z,2.70
2019-02-09T12:52:55.335Z,3.33
2019-02-09T12:55:24.825Z,4.53
2019-02-09T12:57:56.535Z,3.03
2019-02-09T13:00:28.004Z,3.00
2019-02-09T13:02:57.901Z,3.03
2019-02-09T13:05:34.001Z,2.33
2019-02-09T13:08:04.607Z,2.57
2019-02-09T13:10:33.812Z,2.00
2019-02-09T13:13:02.911Z,3.10
2019-02-09T13:15:32.009Z,4.43
2019-02-09T13:18:02.847Z,3.40
2019-02-09T13:20:32.096Z,6.37
2019-02-09T13:23:02.508Z,5.07
2019-02-09T13:25:35.453Z,2.80
2019-02-09T13:28:05.300Z,6.03
2019-02-09T13:30:42.793Z,3.50
2019-02-09T13:33:13.668Z,6.30
2019-02-09T13:35:43.887Z,7.60
2019-02-09T13:38:15.523Z,4.80
2019-02-09T13:40:46.364Z,4.90
2019-02-09T13:43:15.692Z,4.10
2019-02-09T13:45:48.059Z,3.40
2019-02-09T13:48:17.170Z,3.77
2019-02-09T13:50:46.274Z,9.20
2019-02-09T13:53:15.384Z,3.93
2019-02-09T13:55:46.961Z,3.57
2019-02-09T13:58:16.048Z,3.60
2019-02-09T14:00:45.130Z,9.70
2019-02-09T14:03:14.535Z,6.30
2019-02-09T14:05:48.656Z,2.43
2019-02-09T14:08:21.538Z,2.63
2019-02-09T14:10:52.981Z,3.90
2019-02-09T14:13:22.176Z,2.33
2019-02-09T14:15:51.463Z,2.13
2019-02-09T14:18:20.553Z,3.57
2019-02-09T14:20:51.002Z,2.63
2019-02-09T14:23:20.539Z,2.07
2019-02-09T14:25:49.742Z,2.80
2019-02-09T14:28:22.350Z,4.80
2019-02-09T14:30:53.896Z,2.70
2019-02-09T14:33:23.063Z,1.80
2019-02-09T14:35:52.107Z,3.53
2019-02-09T14:38:23.300Z,5.50
2019-02-09T14:40:52.915Z,2.43
2019-02-09T14:43:30.188Z,3.40
2019-02-09T14:45:59.398Z,3.40
2019-02-09T14:48:28.525Z,2.20
2019-02-09T14:50:59.248Z,4.17
2019-02-09T14:53:28.640Z,3.77
2019-02-09T14:55:59.386Z,4.40
2019-02-09T14:58:28.510Z,5.63
2019-02-09T15:00:57.586Z,7.10
2019-02-09T15:03:30.576Z,2.53
2019-02-09T15:05:57.736Z,2.30
2019-02-09T15:08:26.825Z,4.73
2019-02-09T15:10:56.035Z,2.27
2019-02-09T15:13:26.764Z,2.17
2019-02-09T15:16:23.749Z,3.70
2019-02-09T15:18:58.066Z,3.30
2019-02-09T15:21:28.499Z,2.07
2019-02-09T15:23:57.617Z,3.23
2019-02-09T15:26:32.279Z,2.27
2019-02-09T15:29:01.353Z,6.77
2019-02-09T15:31:31.804Z,6.23
2019-02-09T15:34:10.276Z,9.00
2019-02-09T15:36:38.186Z,6.63
2019-02-09T15:39:11.576Z,5.50
2019-02-09T15:41:40.687Z,7.93
2019-02-09T15:44:10.721Z,7.23
2019-02-09T15:46:39.814Z,5.13
2019-02-09T15:49:08.919Z,2.60
2019-02-09T15:51:38.047Z,4.10
2019-02-09T15:54:09.085Z,5.60
2019-02-09T15:56:38.196Z,8.90
2019-02-09T15:59:07.482Z,6.97
2019-02-09T16:01:36.578Z,3.00
2019-02-09T16:04:08.147Z,3.00
2019-02-09T16:06:37.254Z,5.60
2019-02-09T16:09:12.346Z,9.80
2019-02-09T16:11:41.433Z,2.00
2019-02-09T16:14:10.515Z,5.50
2019-02-09T16:16:41.556Z,9.23
2019-02-09T16:19:10.638Z,8.17
2019-02-09T16:21:41.080Z,4.33
2019-02-09T16:24:17.509Z,9.73
2019-02-09T16:26:46.679Z,7.57
2019-02-09T16:29:24.532Z,5.33
2019-02-09T16:31:53.721Z,10.23
2019-02-09T16:34:25.456Z,5.70
2019-02-09T16:36:56.443Z,5.30
2019-02-09T16:39:28.371Z,7.77
2019-02-09T16:41:59.114Z,5.47
2019-02-09T16:44:28.637Z,4.53
2019-02-09T16:46:57.988Z,3.60
2019-02-09T16:49:35.092Z,4.30
2019-02-09T16:52:07.748Z,7.77
2019-02-09T16:54:44.434Z,5.50
2019-02-09T16:57:15.903Z,3.87
2019-02-09T16:59:45.031Z,5.00
2019-02-09T17:02:14.143Z,5.80
2019-02-09T17:04:43.374Z,5.97
2019-02-09T17:07:12.800Z,8.90
2019-02-09T17:09:41.944Z,5.30
2019-02-09T17:12:12.665Z,3.47
2019-02-09T17:14:42.199Z,4.03
2019-02-09T17:17:13.898Z,5.90
2019-02-09T17:19:43.047Z,4.17
2019-02-09T17:22:12.536Z,7.53
2019-02-09T17:24:44.107Z,8.83
2019-02-09T17:27:13.322Z,12.20
2019-02-09T17:29:48.219Z,7.67
2019-02-09T17:32:17.510Z,3.00
2019-02-09T17:34:47.028Z,8.50
2019-02-09T17:37:16.176Z,4.27
2019-02-09T17:39:45.292Z,7.17
2019-02-09T17:42:23.609Z,6.57
2019-02-09T17:44:53.537Z,7.80
2019-02-09T17:47:23.186Z,4.43
2019-02-09T17:49:54.844Z,5.70
2019-02-09T17:52:25.098Z,5.10
2019-02-09T17:54:54.391Z,12.73
2019-02-09T17:57:25.401Z,7.33
2019-02-09T17:59:56.237Z,6.40
2019-02-09T18:02:26.833Z,4.50
2019-02-09T18:04:59.966Z,4.23
2019-02-09T18:07:30.053Z,8.47
2019-02-09T18:10:03.703Z,7.30
2019-02-09T18:12:32.795Z,6.80
2019-02-09T18:15:05.409Z,6.10
2019-02-09T18:17:34.525Z,3.83
2019-02-09T18:20:03.943Z,5.50
2019-02-09T18:22:33.028Z,4.27
2019-02-09T18:25:10.688Z,5.33
2019-02-09T18:27:39.796Z,5.50
2019-02-09T18:30:12.014Z,8.60
2019-02-09T18:32:41.130Z,6.60
2019-02-09T18:35:16.470Z,4.17
2019-02-09T18:37:47.497Z,5.70
2019-02-09T18:40:20.788Z,7.30
2019-02-09T18:42:50.749Z,9.13
2019-02-09T18:45:33.486Z,8.47
2019-02-09T18:48:02.571Z,9.03
2019-02-09T18:50:34.936Z,18.73
2019-02-09T18:53:06.260Z,5.67
2019-02-09T18:55:36.854Z,8.83
2019-02-09T18:58:08.428Z,6.50
2019-02-09T19:00:42.912Z,5.83
2019-02-09T19:03:14.641Z,4.50
2019-02-09T19:05:43.813Z,5.43
2019-02-09T19:08:15.985Z,6.40
2019-02-09T19:10:45.081Z,8.70
2019-02-09T19:13:21.698Z,4.80
2019-02-09T19:15:54.628Z,3.30
2019-02-09T19:18:26.832Z,5.73
2019-02-09T19:20:58.332Z,5.37
2019-02-09T19:23:30.415Z,9.53
2019-02-09T19:26:01.145Z,7.83
2019-02-09T19:28:31.332Z,7.90
2019-02-09T19:31:00.451Z,6.30
2019-02-09T19:33:29.540Z,9.50
2019-02-09T19:35:58.662Z,10.27
2019-02-09T19:38:28.313Z,9.97
2019-02-09T19:41:04.353Z,8.37
2019-02-09T19:43:33.558Z,13.30
2019-02-09T19:46:02.669Z,9.70
2019-02-09T19:48:33.482Z,6.80
2019-02-09T19:51:07.795Z,9.00
2019-02-09T19:53:37.685Z,5.73
2019-02-09T19:56:06.892Z,4.60
2019-02-09T19:58:40.425Z,10.33
2019-02-09T20:01:11.459Z,8.53
2019-02-09T20:03:42.297Z,9.47
2019-02-09T20:06:15.530Z,14.70
2019-02-09T20:08:45.003Z,12.43
2019-02-09T20:11:19.370Z,15.90
2019-02-09T20:13:48.863Z,8.10
2019-02-09T20:16:20.595Z,16.53
2019-02-09T20:18:49.748Z,6.40
2019-02-09T20:21:20.206Z,4.60
2019-02-09T20:24:01.815Z,5.00
2019-02-09T20:26:38.618Z,4.80
2019-02-09T20:29:07.730Z,5.10
2019-02-09T20:31:37.032Z,3.13
2019-02-09T20:34:06.515Z,4.40
2019-02-09T20:36:49.911Z,3.50
2019-02-09T20:39:18.990Z,4.80
2019-02-09T20:41:49.959Z,6.83
2019-02-09T20:44:19.947Z,6.07
2019-02-09T20:46:49.108Z,4.83
2019-02-09T20:49:18.422Z,3.93
2019-02-09T20:51:50.072Z,6.20
2019-02-09T20:54:20.718Z,6.63
2019-02-09T20:56:59.319Z,8.93
2019-02-09T20:59:28.435Z,6.07
2019-02-09T21:01:59.343Z,4.27
2019-02-09T21:04:28.493Z,6.93
2019-02-09T21:06:57.593Z,9.17
2019-02-09T21:09:26.690Z,10.40
2019-02-09T21:11:55.792Z,3.93
2019-02-09T21:14:25.203Z,6.37
2019-02-09T21:17:01.876Z,7.00
2019-02-09T21:19:30.990Z,5.00
2019-02-09T21:22:01.761Z,6.00
2019-02-09T21:24:31.223Z,5.20
2019-02-09T21:27:01.904Z,7.20
2019-02-09T21:29:39.080Z,8.63
2019-02-09T21:32:08.142Z,6.43
2019-02-09T21:34:37.358Z,6.70
2019-02-09T21:37:06.473Z,5.50
2019-02-09T21:39:36.636Z,5.50
2019-02-09T21:42:08.519Z,10.97
2019-02-09T21:44:41.783Z,8.83
2019-02-09T21:47:08.959Z,4.60
2019-02-09T21:49:38.169Z,8.37
2019-02-09T21:52:09.781Z,6.40
2019-02-09T21:54:40.406Z,7.73
2019-02-09T21:57:10.583Z,6.93
2019-02-09T21:59:39.787Z,5.97
2019-02-09T22:02:08.906Z,8.63
2019-02-09T22:04:39.447Z,7.60
2019-02-09T22:07:09.627Z,10.37
2019-02-09T22:09:44.118Z,10.43
2019-02-09T22:12:13.300Z,4.97
2019-02-09T22:14:42.865Z,2.73
2019-02-09T22:17:18.014Z,10.60
2019-02-09T22:19:47.451Z,7.40
2019-02-09T22:22:18.652Z,5.90
2019-02-09T22:24:47.579Z,6.73
2019-02-09T22:27:18.423Z,5.00
2019-02-09T22:29:48.669Z,3.83
2019-02-09T22:32:17.743Z,11.07
2019-02-09T22:34:46.864Z,6.30
2019-02-09T22:37:17.969Z,3.13
2019-02-09T22:39:48.480Z,4.13
2019-02-09T22:42:23.160Z,8.40
2019-02-09T22:44:54.004Z,9.43
2019-02-09T22:47:23.137Z,4.63
2019-02-09T22:49:53.782Z,4.10
2019-02-09T22:52:24.745Z,12.00
2019-02-09T22:54:53.744Z,7.20
2019-02-09T22:57:26.225Z,5.57
2019-02-09T22:59:55.305Z,8.13
2019-02-09T23:02:26.270Z,7.87
2019-02-09T23:05:08.369Z,8.03
2019-02-09T23:07:37.964Z,9.30
2019-02-09T23:10:12.641Z,3.20
2019-02-09T23:12:48.412Z,5.50
2019-02-09T23:15:12.654Z,9.57
2019-02-09T23:17:41.784Z,7.23
2019-02-09T23:20:13.195Z,11.33
2019-02-09T23:22:47.340Z,7.97
2019-02-09T23:25:18.428Z,5.17
2019-02-09T23:27:50.017Z,7.13
2019-02-09T23:30:19.116Z,4.70
2019-02-09T23:32:48.193Z,7.43
2019-02-09T23:35:17.300Z,6.37
2019-02-09T23:37:48.115Z,4.93
2019-02-09T23:40:23.718Z,8.70
2019-02-09T23:42:57.702Z,4.23
2019-02-09T23:45:27.886Z,3.40
2019-02-09T23:47:58.973Z,9.43
2019-02-09T23:50:30.629Z,5.70
2019-02-09T23:52:59.716Z,10.53
2019-02-09T23:55:30.011Z,4.60
2019-02-09T23:57:59.111Z,5.93
